Cozumel, ROO, Mexico
Current Conditions -  °F | °C
As of 6:40 PM on Saturday 22 Nov 2014 (Local Time) from MMCZ Reporting Station
Few Clouds Few Clouds  
Wind Chill: 72°   Ceiling: Unl
Heat Index: 72°   Visibility: 7mi
Dew Point: 72°   Wind: 0mph
Humidity: 100%   Direction: NA
Pressure: 29.96"   Gusts: NA
Location:  20.43°N, 86.88°W
Report Text: MMCZ 230040Z 00000KT 7SM FEW015 22/22 A2996 RMK 8/100 RTS
Loading
Personal Weather Stations






























Interactive Weather Map New forecast layout! Learn more

10-Day Weather Forecast

Advertisements
Track Severe Weather on mobile